Time,TemperatureF,DewpointF,PressureIn,WindDirection,WindDirectionDegrees,WindSpeedMPH,WindSpeedGustMPH,Humidity,HourlyPrecipIn,Conditions,Clouds,dailyrainin,SolarRadiationWatts/m^2,SoftwareType,DateUTC
2013-05-30 00:00:00,75.3,65.7,30.09,SW,225,2.4,2.4,72,0.00,,OVC,0.00,0.00,VWS V14.00,2013-05-30 04:00:00,
2013-05-30 00:01:00,75.3,65.7,30.09,SSW,202,0.0,0.0,72,0.00,,OVC,0.00,0.00,VWS V14.00,2013-05-30 04:01:00,
2013-05-30 00:06:00,75.3,65.7,30.08,SW,225,0.6,0.6,72,0.00,,OVC,0.00,0.00,VWS V14.00,2013-05-30 04:06:00,
2013-05-30 00:11:00,75.3,65.7,30.08,SW,225,4.9,4.9,72,0.00,,OVC,0.00,0.00,VWS V14.00,2013-05-30 04:11:00,
2013-05-30 00:16:00,75.0,65.4,30.08,South,180,4.4,4.4,72,0.00,,OVC,0.00,0.00,VWS V14.00,2013-05-30 04:16:00,
2013-05-30 00:21:00,75.0,65.4,30.08,SW,225,2.2,2.2,72,0.00,,OVC,0.00,0.00,VWS V14.00,2013-05-30 04:21:00,
2013-05-30 00:26:00,75.0,65.4,30.08,SW,225,3.8,3.8,72,0.00,,OVC,0.00,0.00,VWS V14.00,2013-05-30 04:26:00,
2013-05-30 00:31:00,75.0,65.4,30.08,WSW,248,3.8,3.8,72,0.00,,OVC,0.00,0.00,VWS V14.00,2013-05-30 04:31:00,
2013-05-30 00:36:00,74.8,65.2,30.08,SW,225,6.7,6.7,72,0.00,,OVC,0.00,0.00,VWS V14.00,2013-05-30 04:36:00,
2013-05-30 00:41:00,74.8,65.6,30.08,WSW,248,1.7,1.7,73,0.00,,OVC,0.00,0.00,VWS V14.00,2013-05-30 04:41:00,
2013-05-30 00:46:00,74.8,65.6,30.08,SW,225,2.6,2.6,73,0.00,,OVC,0.00,0.00,VWS V14.00,2013-05-30 04:46:00,
2013-05-30 00:51:00,74.8,65.6,30.08,WSW,248,4.4,4.4,73,0.00,,OVC,0.00,0.00,VWS V14.00,2013-05-30 04:51:00,
2013-05-30 00:56:00,74.8,65.6,30.09,SW,225,0.4,0.4,73,0.00,,OVC,0.00,0.00,VWS V14.00,2013-05-30 04:56:00,
2013-05-30 01:01:00,74.8,65.6,30.08,SW,225,4.4,4.4,73,0.00,,OVC,0.00,0.00,VWS V14.00,2013-05-30 05:01:00,
2013-05-30 01:06:00,74.8,65.6,30.08,SSW,202,2.2,4.4,73,0.00,,OVC,0.00,0.00,VWS V14.00,2013-05-30 05:06:00,
2013-05-30 01:11:00,74.4,65.2,30.08,WSW,248,0.6,0.6,73,0.00,,OVC,0.00,0.00,VWS V14.00,2013-05-30 05:11:00,
2013-05-30 01:16:00,74.4,65.2,30.08,West,270,2.4,2.4,73,0.00,,OVC,0.00,0.00,VWS V14.00,2013-05-30 05:16:00,
2013-05-30 01:21:00,74.4,65.2,30.08,WSW,248,0.0,0.0,73,0.00,,OVC,0.00,0.00,VWS V14.00,2013-05-30 05:21:00,
2013-05-30 01:26:00,74.3,65.5,30.08,WSW,248,2.0,2.0,74,0.00,,OVC,0.00,0.00,VWS V14.00,2013-05-30 05:26:00,
2013-05-30 01:31:00,74.1,65.3,30.08,WSW,248,1.7,1.7,74,0.00,,OVC,0.00,0.00,VWS V14.00,2013-05-30 05:31:00,
2013-05-30 01:36:00,74.1,65.3,30.08,SW,225,0.0,0.0,74,0.00,,OVC,0.00,0.00,VWS V14.00,2013-05-30 05:36:00,
2013-05-30 01:41:00,73.9,65.1,30.09,SW,225,0.0,0.0,74,0.00,,OVC,0.00,0.00,VWS V14.00,2013-05-30 05:41:00,
2013-05-30 01:46:00,73.9,65.1,30.08,SW,225,6.9,6.9,74,0.00,,OVC,0.00,0.00,VWS V14.00,2013-05-30 05:46:00,
2013-05-30 01:51:00,73.7,64.9,30.09,WSW,248,0.0,0.0,74,0.00,,OVC,0.00,0.00,VWS V14.00,2013-05-30 05:51:00,
2013-05-30 01:56:00,73.5,64.7,30.09,WSW,248,0.0,0.0,74,0.00,,OVC,0.00,0.00,VWS V14.00,2013-05-30 05:56:00,
2013-05-30 02:01:00,73.4,65.0,30.09,WSW,248,0.0,0.0,75,0.00,,OVC,0.00,0.00,VWS V14.00,2013-05-30 06:01:00,
2013-05-30 02:06:00,73.2,64.8,30.09,West,270,2.6,2.6,75,0.00,,OVC,0.00,0.00,VWS V14.00,2013-05-30 06:06:00,
2013-05-30 02:11:00,73.0,64.6,30.09,WSW,248,0.0,0.0,75,0.00,,OVC,0.00,0.00,VWS V14.00,2013-05-30 06:11:00,
2013-05-30 02:16:00,72.8,64.4,30.09,West,270,0.8,0.8,75,0.00,,OVC,0.00,0.00,VWS V14.00,2013-05-30 06:16:00,
2013-05-30 02:21:00,72.6,64.6,30.10,SSW,202,0.8,0.8,76,0.00,,OVC,0.00,0.00,VWS V14.00,2013-05-30 06:21:00,
2013-05-30 02:26:00,72.5,64.5,30.10,SSW,202,0.0,0.0,76,0.00,,OVC,0.00,0.00,VWS V14.00,2013-05-30 06:26:00,
2013-05-30 02:31:00,72.3,64.3,30.10,WSW,248,4.0,4.0,76,0.00,,OVC,0.00,0.00,VWS V14.00,2013-05-30 06:31:00,
2013-05-30 02:36:00,72.3,64.3,30.10,WSW,248,0.0,0.0,76,0.00,,OVC,0.00,0.00,VWS V14.00,2013-05-30 06:36:00,
2013-05-30 02:41:00,72.1,64.5,30.10,SSW,202,0.0,0.0,77,0.00,,OVC,0.00,0.00,VWS V14.00,2013-05-30 06:41:00,
2013-05-30 02:46:00,72.1,64.5,30.10,WSW,248,0.0,0.0,77,0.00,,OVC,0.00,0.00,VWS V14.00,2013-05-30 06:46:00,
2013-05-30 02:51:00,71.9,64.3,30.10,WSW,248,0.0,0.0,77,0.00,,OVC,0.00,0.00,VWS V14.00,2013-05-30 06:51:00,
2013-05-30 02:56:00,71.9,64.3,30.10,WSW,248,0.0,0.0,77,0.00,,OVC,0.00,0.00,VWS V14.00,2013-05-30 06:56:00,
2013-05-30 03:01:00,71.7,64.5,30.09,WSW,248,0.0,0.0,78,0.00,,OVC,0.00,0.00,VWS V14.00,2013-05-30 07:01:00,
2013-05-30 03:06:00,71.7,64.5,30.09,SW,225,0.0,0.0,78,0.00,,OVC,0.00,0.00,VWS V14.00,2013-05-30 07:06:00,
2013-05-30 03:11:00,71.6,64.4,30.09,WSW,248,0.0,0.0,78,0.00,,OVC,0.00,0.00,VWS V14.00,2013-05-30 07:11:00,
2013-05-30 03:16:00,71.4,64.2,30.09,WSW,248,0.0,0.0,78,0.00,,OVC,0.00,0.00,VWS V14.00,2013-05-30 07:16:00,
2013-05-30 03:21:00,71.4,64.6,30.09,SW,225,4.6,4.6,79,0.00,,OVC,0.00,0.00,VWS V14.00,2013-05-30 07:21:00,
2013-05-30 03:26:00,71.4,64.6,30.10,SW,225,3.8,3.8,79,0.00,,OVC,0.00,0.00,VWS V14.00,2013-05-30 07:26:00,
2013-05-30 03:31:00,71.4,64.2,30.10,SW,225,2.9,2.9,78,0.00,,OVC,0.00,0.00,VWS V14.00,2013-05-30 07:31:00,
2013-05-30 03:36:00,71.4,64.2,30.09,SW,225,2.6,2.6,78,0.00,,OVC,0.00,0.00,VWS V14.00,2013-05-30 07:36:00,
2013-05-30 03:40:00,71.4,64.6,30.09,SW,225,0.0,0.0,79,0.00,,OVC,0.00,0.00,VWS V14.00,2013-05-30 07:40:00,
2013-05-30 03:45:00,71.4,64.6,30.09,SW,225,3.1,3.1,79,0.00,,OVC,0.00,0.00,VWS V14.00,2013-05-30 07:45:00,
2013-05-30 03:50:00,71.4,64.6,30.09,WSW,248,1.5,1.5,79,0.00,,OVC,0.00,0.00,VWS V14.00,2013-05-30 07:50:00,
2013-05-30 03:55:00,71.4,64.6,30.09,WSW,248,1.7,1.7,79,0.00,,OVC,0.00,0.00,VWS V14.00,2013-05-30 07:55:00,
2013-05-30 04:00:00,71.4,64.6,30.09,SW,225,6.0,6.0,79,0.00,,OVC,0.00,0.00,VWS V14.00,2013-05-30 08:00:00,
2013-05-30 04:05:00,71.4,64.6,30.09,WSW,248,1.1,1.1,79,0.00,,OVC,0.00,0.00,VWS V14.00,2013-05-30 08:05:00,
2013-05-30 04:10:00,71.4,64.6,30.09,SW,225,3.3,3.3,79,0.00,,OVC,0.00,0.00,VWS V14.00,2013-05-30 08:10:00,
2013-05-30 04:16:00,71.4,64.6,30.09,SSW,202,2.6,2.6,79,0.00,,OVC,0.00,0.00,VWS V14.00,2013-05-30 08:16:00,
2013-05-30 04:21:00,71.4,64.6,30.09,WSW,248,1.5,1.5,79,0.00,,OVC,0.00,0.00,VWS V14.00,2013-05-30 08:21:00,
2013-05-30 04:26:00,71.4,64.6,30.09,WSW,248,0.0,0.0,79,0.00,,OVC,0.00,0.00,VWS V14.00,2013-05-30 08:26:00,
2013-05-30 04:31:00,71.4,64.6,30.10,West,270,0.0,0.0,79,0.00,,OVC,0.00,0.00,VWS V14.00,2013-05-30 08:31:00,
2013-05-30 04:36:00,71.4,64.6,30.09,SW,225,0.0,0.0,79,0.00,,OVC,0.00,0.00,VWS V14.00,2013-05-30 08:36:00,
2013-05-30 04:41:00,71.2,64.4,30.09,WSW,248,0.0,0.0,79,0.00,,OVC,0.00,0.00,VWS V14.00,2013-05-30 08:41:00,
2013-05-30 04:46:00,71.2,64.4,30.10,WSW,248,0.0,0.0,79,0.00,,OVC,0.00,0.00,VWS V14.00,2013-05-30 08:46:00,
2013-05-30 04:50:00,71.0,64.2,30.10,SSW,202,2.4,2.4,79,0.00,,OVC,0.00,0.00,VWS V14.00,2013-05-30 08:50:00,
2013-05-30 04:55:00,70.8,64.0,30.10,SSW,202,1.7,1.7,79,0.00,,OVC,0.00,0.00,VWS V14.00,2013-05-30 08:55:00,
2013-05-30 05:00:00,70.8,64.0,30.10,WSW,248,0.0,0.0,79,0.00,,OVC,0.00,0.00,VWS V14.00,2013-05-30 09:00:00,
2013-05-30 05:05:00,70.7,64.2,30.10,SW,225,0.0,0.0,80,0.00,,OVC,0.00,0.00,VWS V14.00,2013-05-30 09:05:00,
2013-05-30 05:10:00,70.5,64.0,30.10,SW,225,0.0,0.0,80,0.00,,OVC,0.00,0.00,VWS V14.00,2013-05-30 09:10:00,
2013-05-30 05:15:00,70.5,64.0,30.10,West,270,2.4,2.4,80,0.00,,OVC,0.00,0.00,VWS V14.00,2013-05-30 09:15:00,
2013-05-30 05:20:00,70.3,63.8,30.11,SSW,202,2.0,2.0,80,0.00,,OVC,0.00,0.00,VWS V14.00,2013-05-30 09:20:00,
2013-05-30 05:25:00,70.3,63.8,30.11,West,270,0.0,0.0,80,0.00,,OVC,0.00,0.00,VWS V14.00,2013-05-30 09:25:00,
2013-05-30 05:30:00,70.3,63.8,30.11,WSW,248,3.1,3.1,80,0.00,,OVC,0.00,0.00,VWS V14.00,2013-05-30 09:30:00,
2013-05-30 05:35:00,70.3,63.8,30.11,SW,225,1.5,1.5,80,0.00,,OVC,0.00,0.00,VWS V14.00,2013-05-30 09:35:00,
2013-05-30 05:40:00,70.1,63.7,30.11,WSW,248,4.0,4.0,80,0.00,,OVC,0.00,0.00,VWS V14.00,2013-05-30 09:40:00,
2013-05-30 05:45:00,70.1,64.0,30.11,WSW,248,3.1,3.1,81,0.00,,OVC,0.00,0.00,VWS V14.00,2013-05-30 09:45:00,
2013-05-30 05:50:00,70.1,64.0,30.11,WSW,248,0.8,0.8,81,0.00,,OVC,0.00,0.00,VWS V14.00,2013-05-30 09:50:00,
2013-05-30 05:55:00,70.3,64.2,30.12,SW,225,3.8,3.8,81,0.00,,OVC,0.00,0.00,VWS V14.00,2013-05-30 09:55:00,
2013-05-30 06:00:00,70.3,64.2,30.12,West,270,3.3,3.3,81,0.00,,OVC,0.00,0.00,VWS V14.00,2013-05-30 10:00:00,
2013-05-30 06:05:00,70.5,64.0,30.12,West,270,0.0,0.0,80,0.00,,OVC,0.00,0.00,VWS V14.00,2013-05-30 10:05:00,
2013-05-30 06:10:00,70.5,64.0,30.12,West,270,5.5,5.5,80,0.00,,OVC,0.00,0.00,VWS V14.00,2013-05-30 10:10:00,
2013-05-30 06:15:00,70.8,64.7,30.12,WSW,248,3.1,3.1,81,0.00,,OVC,0.00,0.00,VWS V14.00,2013-05-30 10:15:00,
2013-05-30 06:20:00,70.8,64.3,30.13,SW,225,0.0,0.0,80,0.00,,OVC,0.00,0.00,VWS V14.00,2013-05-30 10:20:00,
2013-05-30 06:25:00,71.2,64.7,30.13,WSW,248,0.0,0.0,80,0.00,,OVC,0.00,0.00,VWS V14.00,2013-05-30 10:25:00,
2013-05-30 06:30:00,71.2,64.7,30.12,West,270,0.8,0.8,80,0.00,,OVC,0.00,0.00,VWS V14.00,2013-05-30 10:30:00,
2013-05-30 06:35:00,71.4,64.6,30.12,WSW,248,0.4,0.4,79,0.00,,OVC,0.00,0.00,VWS V14.00,2013-05-30 10:35:00,
2013-05-30 06:40:00,71.9,65.0,30.13,South,180,0.0,0.0,79,0.00,,OVC,0.00,0.00,VWS V14.00,2013-05-30 10:40:00,
2013-05-30 06:45:00,72.3,65.4,30.13,SW,225,2.6,2.6,79,0.00,,OVC,0.00,0.00,VWS V14.00,2013-05-30 10:45:00,
2013-05-30 06:50:00,72.6,65.3,30.13,SW,225,7.3,7.3,78,0.00,,OVC,0.00,0.00,VWS V14.00,2013-05-30 10:50:00,
2013-05-30 06:55:00,73.2,65.9,30.13,West,270,6.9,6.9,78,0.00,,OVC,0.00,0.00,VWS V14.00,2013-05-30 10:55:00,
2013-05-30 07:00:00,73.2,65.6,30.13,WSW,248,3.8,3.8,77,0.00,,OVC,0.00,0.00,VWS V14.00,2013-05-30 11:00:00,
2013-05-30 07:05:00,73.4,65.8,30.13,SW,225,2.6,2.6,77,0.00,,OVC,0.00,0.00,VWS V14.00,2013-05-30 11:05:00,
2013-05-30 07:10:00,73.7,66.1,30.13,SW,225,4.9,4.9,77,0.00,,OVC,0.00,0.00,VWS V14.00,2013-05-30 11:10:00,
2013-05-30 07:15:00,74.1,66.4,30.13,NW,315,0.0,0.0,77,0.00,,OVC,0.00,0.00,VWS V14.00,2013-05-30 11:15:00,
2013-05-30 07:20:00,75.3,67.2,30.13,WSW,248,0.0,0.0,76,0.00,,OVC,0.00,0.00,VWS V14.00,2013-05-30 11:20:00,
2013-05-30 07:25:00,78.9,70.3,30.14,West,270,0.0,0.0,75,0.00,,OVC,0.00,0.00,VWS V14.00,2013-05-30 11:25:00,
2013-05-30 07:30:00,82.5,71.7,30.14,WNW,292,1.3,1.3,70,0.00,,OVC,0.00,0.00,VWS V14.00,2013-05-30 11:30:00,
2013-05-30 07:35:00,85.6,72.5,30.14,WSW,248,0.8,0.8,65,0.00,,OVC,0.00,0.00,VWS V14.00,2013-05-30 11:35:00,
2013-05-30 07:40:00,87.6,71.5,30.14,WSW,248,0.0,0.0,59,0.00,,OVC,0.00,0.00,VWS V14.00,2013-05-30 11:40:00,
2013-05-30 07:45:00,89.4,71.7,30.14,West,270,6.0,6.0,56,0.00,,OVC,0.00,0.00,VWS V14.00,2013-05-30 11:45:00,
2013-05-30 07:50:00,90.3,71.4,30.14,WSW,248,5.1,5.1,54,0.00,,OVC,0.00,0.00,VWS V14.00,2013-05-30 11:50:00,
2013-05-30 07:55:00,91.2,71.1,30.14,WSW,248,6.7,6.7,52,0.00,,OVC,0.00,0.00,VWS V14.00,2013-05-30 11:55:00,
2013-05-30 08:00:00,91.9,71.8,30.14,NNW,338,1.7,1.7,52,0.00,,OVC,0.00,0.00,VWS V14.00,2013-05-30 12:00:00,
2013-05-30 08:05:00,92.1,71.4,30.14,WSW,248,0.0,0.0,51,0.00,,OVC,0.00,0.00,VWS V14.00,2013-05-30 12:05:00,
2013-05-30 08:10:00,92.8,72.0,30.14,WNW,292,0.0,0.0,51,0.00,,OVC,0.00,0.00,VWS V14.00,2013-05-30 12:10:00,
2013-05-30 08:15:00,93.7,72.8,30.14,West,270,0.0,0.0,51,0.00,,OVC,0.00,0.00,VWS V14.00,2013-05-30 12:15:00,
2013-05-30 08:20:00,94.2,72.1,30.14,NW,315,0.0,0.0,49,0.00,,OVC,0.00,0.00,VWS V14.00,2013-05-30 12:20:00,
2013-05-30 08:25:00,94.4,72.3,30.13,WSW,248,4.9,4.9,49,0.00,,OVC,0.00,0.00,VWS V14.00,2013-05-30 12:25:00,
2013-05-30 08:30:00,94.6,71.9,30.13,NW,315,5.3,5.3,48,0.00,,OVC,0.00,0.00,VWS V14.00,2013-05-30 12:30:00,
2013-05-30 08:35:00,94.6,71.9,30.14,SSW,202,0.0,0.0,48,0.00,,OVC,0.00,0.00,VWS V14.00,2013-05-30 12:35:00,
2013-05-30 08:40:00,94.8,72.1,30.14,WSW,248,4.2,4.2,48,0.00,,OVC,0.00,0.00,VWS V14.00,2013-05-30 12:40:00,
2013-05-30 08:45:00,94.8,72.1,30.14,West,270,1.5,1.5,48,0.00,,OVC,0.00,0.00,VWS V14.00,2013-05-30 12:45:00,
2013-05-30 08:50:00,95.1,72.3,30.14,West,270,0.0,0.0,48,0.00,,OVC,0.00,0.00,VWS V14.00,2013-05-30 12:50:00,
2013-05-30 08:55:00,95.5,72.7,30.14,SW,225,2.2,2.2,48,0.00,,OVC,0.00,0.00,VWS V14.00,2013-05-30 12:55:00,
2013-05-30 09:00:00,95.3,72.5,30.14,West,270,0.8,0.8,48,0.00,,OVC,0.00,0.00,VWS V14.00,2013-05-30 13:00:00,
2013-05-30 09:05:00,95.3,71.9,30.14,West,270,0.0,0.0,47,0.00,,OVC,0.00,0.00,VWS V14.00,2013-05-30 13:05:00,
2013-05-30 09:10:00,95.5,72.7,30.14,WSW,248,1.7,1.7,48,0.00,,OVC,0.00,0.00,VWS V14.00,2013-05-30 13:10:00,
2013-05-30 09:15:00,95.3,72.5,30.14,WSW,248,3.1,3.1,48,0.00,,OVC,0.00,0.00,VWS V14.00,2013-05-30 13:15:00,
2013-05-30 09:20:00,95.5,72.7,30.14,West,270,0.0,0.0,48,0.00,,OVC,0.00,0.00,VWS V14.00,2013-05-30 13:20:00,
2013-05-30 09:25:00,95.9,73.1,30.14,WSW,248,1.1,1.1,48,0.00,,OVC,0.00,0.00,VWS V14.00,2013-05-30 13:25:00,
2013-05-30 09:30:00,96.0,73.2,30.14,West,270,0.0,0.0,48,0.00,,OVC,0.00,0.00,VWS V14.00,2013-05-30 13:30:00,
2013-05-30 09:35:00,96.4,72.9,30.14,WNW,292,3.5,3.5,47,0.00,,OVC,0.00,0.00,VWS V14.00,2013-05-30 13:35:00,
2013-05-30 09:40:00,96.4,73.5,30.14,West,270,0.8,0.8,48,0.00,,OVC,0.00,0.00,VWS V14.00,2013-05-30 13:40:00,
2013-05-30 09:45:00,96.6,73.1,30.14,West,270,2.0,2.0,47,0.00,,OVC,0.00,0.00,VWS V14.00,2013-05-30 13:45:00,
2013-05-30 09:50:00,96.6,73.1,30.13,West,270,0.4,0.4,47,0.00,,OVC,0.00,0.00,VWS V14.00,2013-05-30 13:50:00,
2013-05-30 09:55:00,96.6,72.4,30.13,SSW,202,0.0,0.0,46,0.00,,OVC,0.00,0.00,VWS V14.00,2013-05-30 13:55:00,
2013-05-30 10:00:00,96.8,73.3,30.13,SW,225,0.0,0.0,47,0.00,,OVC,0.00,0.00,VWS V14.00,2013-05-30 14:00:00,
2013-05-30 10:05:00,97.1,72.9,30.13,SW,225,4.9,4.9,46,0.00,,OVC,0.00,0.00,VWS V14.00,2013-05-30 14:05:00,
2013-05-30 10:10:00,97.5,72.6,30.13,WSW,248,0.0,0.0,45,0.00,,OVC,0.00,0.00,VWS V14.00,2013-05-30 14:10:00,
2013-05-30 10:15:00,97.3,72.4,30.13,NNW,338,2.6,2.6,45,0.00,,OVC,0.00,0.00,VWS V14.00,2013-05-30 14:15:00,
2013-05-30 10:20:00,97.5,73.2,30.13,WNW,292,0.0,0.0,46,0.00,,OVC,0.00,0.00,VWS V14.00,2013-05-30 14:20:00,
2013-05-30 10:25:00,97.5,72.6,30.13,WNW,292,0.0,0.0,45,0.00,,OVC,0.00,0.00,VWS V14.00,2013-05-30 14:25:00,
2013-05-30 10:30:00,97.7,71.4,30.13,NW,315,0.0,0.0,43,0.00,,OVC,0.00,0.00,VWS V14.00,2013-05-30 14:30:00,
2013-05-30 10:35:00,97.8,72.9,30.13,NNE,22,0.0,0.0,45,0.00,,OVC,0.00,0.00,VWS V14.00,2013-05-30 14:35:00,
2013-05-30 10:40:00,97.7,71.4,30.13,WSW,248,2.6,2.6,43,0.00,,OVC,0.00,0.00,VWS V14.00,2013-05-30 14:40:00,
2013-05-30 10:45:00,97.5,71.3,30.13,West,270,0.0,0.0,43,0.00,,OVC,0.00,0.00,VWS V14.00,2013-05-30 14:45:00,
2013-05-30 10:50:00,97.5,71.3,30.13,West,270,0.6,0.6,43,0.00,,OVC,0.00,0.00,VWS V14.00,2013-05-30 14:50:00,
2013-05-30 10:55:00,97.3,70.4,30.13,WNW,292,6.9,6.9,42,0.00,,OVC,0.00,0.00,VWS V14.00,2013-05-30 14:55:00,
2013-05-30 11:00:00,97.5,71.3,30.13,WNW,292,7.1,7.1,43,0.00,,OVC,0.00,0.00,VWS V14.00,2013-05-30 15:00:00,
2013-05-30 11:05:00,97.7,71.4,30.13,WNW,292,2.6,2.6,43,0.00,,OVC,0.00,0.00,VWS V14.00,2013-05-30 15:05:00,
2013-05-30 11:10:00,97.3,70.4,30.13,NNE,22,2.4,2.4,42,0.00,,OVC,0.00,0.00,VWS V14.00,2013-05-30 15:10:00,
2013-05-30 11:15:00,96.9,70.0,30.13,WSW,248,1.1,1.1,42,0.00,,OVC,0.00,0.00,VWS V14.00,2013-05-30 15:15:00,
2013-05-30 11:20:00,97.3,70.4,30.13,West,270,0.0,0.0,42,0.00,,OVC,0.00,0.00,VWS V14.00,2013-05-30 15:20:00,
2013-05-30 11:25:00,97.8,70.8,30.13,SSW,202,0.4,0.4,42,0.00,,OVC,0.00,0.00,VWS V14.00,2013-05-30 15:25:00,
2013-05-30 11:30:00,98.2,70.5,30.13,WNW,292,0.0,0.0,41,0.00,,OVC,0.00,0.00,VWS V14.00,2013-05-30 15:30:00,
2013-05-30 11:35:00,98.4,71.4,30.13,NW,315,1.5,1.5,42,0.00,,OVC,0.00,0.00,VWS V14.00,2013-05-30 15:35:00,
2013-05-30 11:40:00,97.8,70.8,30.13,West,270,3.3,3.3,42,0.00,,OVC,0.00,0.00,VWS V14.00,2013-05-30 15:40:00,
2013-05-30 11:45:00,98.0,71.0,30.13,West,270,0.0,0.0,42,0.00,,OVC,0.00,0.00,VWS V14.00,2013-05-30 15:45:00,
2013-05-30 11:50:00,98.2,70.5,30.13,WSW,248,2.2,2.2,41,0.00,,OVC,0.00,0.00,VWS V14.00,2013-05-30 15:50:00,
2013-05-30 11:55:00,98.6,70.8,30.13,West,270,2.9,2.9,41,0.00,,OVC,0.00,0.00,VWS V14.00,2013-05-30 15:55:00,
2013-05-30 12:00:00,98.6,71.6,30.13,WSW,248,0.0,0.0,42,0.00,,OVC,0.00,0.00,VWS V14.00,2013-05-30 16:00:00,
2013-05-30 12:05:00,98.2,69.0,30.13,North,0,0.0,0.0,39,0.00,,OVC,0.00,0.00,VWS V14.00,2013-05-30 16:05:00,
2013-05-30 12:10:00,97.3,67.5,30.13,WNW,292,0.4,0.4,38,0.00,,OVC,0.00,0.00,VWS V14.00,2013-05-30 16:10:00,
2013-05-30 12:15:00,97.5,69.9,30.13,NNW,338,2.9,2.9,41,0.00,,OVC,0.00,0.00,VWS V14.00,2013-05-30 16:15:00,
2013-05-30 12:20:00,98.0,70.3,30.13,West,270,0.0,0.0,41,0.00,,OVC,0.00,0.00,VWS V14.00,2013-05-30 16:20:00,
2013-05-30 12:25:00,98.2,70.5,30.13,SSW,202,0.0,0.0,41,0.00,,OVC,0.00,0.00,VWS V14.00,2013-05-30 16:25:00,
2013-05-30 12:30:00,98.4,70.7,30.13,WSW,248,3.1,3.1,41,0.00,,OVC,0.00,0.00,VWS V14.00,2013-05-30 16:30:00,
2013-05-30 12:35:00,98.7,70.2,30.13,WNW,292,0.0,0.0,40,0.00,,OVC,0.00,0.00,VWS V14.00,2013-05-30 16:35:00,
2013-05-30 12:40:00,98.7,70.2,30.13,WSW,248,6.7,6.7,40,0.00,,OVC,0.00,0.00,VWS V14.00,2013-05-30 16:40:00,
2013-05-30 12:45:00,98.7,69.5,30.13,WSW,248,0.8,0.8,39,0.00,,OVC,0.00,0.00,VWS V14.00,2013-05-30 16:45:00,
2013-05-30 12:50:00,98.2,69.8,30.13,WSW,248,0.4,0.4,40,0.00,,OVC,0.00,0.00,VWS V14.00,2013-05-30 16:50:00,
2013-05-30 12:55:00,98.2,69.8,30.13,West,270,1.5,1.5,40,0.00,,OVC,0.00,0.00,VWS V14.00,2013-05-30 16:55:00,
2013-05-30 13:00:00,98.4,69.9,30.13,WNW,292,3.8,3.8,40,0.00,,OVC,0.00,0.00,VWS V14.00,2013-05-30 17:00:00,
2013-05-30 13:05:00,97.8,68.7,30.12,SSW,202,5.5,5.5,39,0.00,,OVC,0.00,0.00,VWS V14.00,2013-05-30 17:05:00,
2013-05-30 13:10:00,98.0,69.6,30.12,WSW,248,3.1,3.1,40,0.00,,OVC,0.00,0.00,VWS V14.00,2013-05-30 17:10:00,
2013-05-30 13:15:00,98.2,69.0,30.12,WSW,248,2.2,2.2,39,0.00,,OVC,0.00,0.00,VWS V14.00,2013-05-30 17:15:00,
2013-05-30 13:20:00,98.2,69.0,30.12,NW,315,3.3,3.3,39,0.00,,OVC,0.00,0.00,VWS V14.00,2013-05-30 17:20:00,
2013-05-30 13:25:00,97.8,68.7,30.12,South,180,0.0,0.0,39,0.00,,OVC,0.00,0.00,VWS V14.00,2013-05-30 17:25:00,
2013-05-30 13:30:00,97.5,69.1,30.12,WNW,292,2.6,2.6,40,0.00,,OVC,0.00,0.00,VWS V14.00,2013-05-30 17:30:00,
2013-05-30 13:35:00,97.3,68.2,30.12,West,270,0.0,0.0,39,0.00,,OVC,0.00,0.00,VWS V14.00,2013-05-30 17:35:00,
2013-05-30 13:40:00,96.9,68.6,30.12,SW,225,4.2,4.2,40,0.00,,OVC,0.00,0.00,VWS V14.00,2013-05-30 17:40:00,
2013-05-30 13:45:00,96.9,68.6,30.11,WSW,248,0.8,0.8,40,0.00,,OVC,0.00,0.00,VWS V14.00,2013-05-30 17:45:00,
2013-05-30 13:50:00,96.9,67.9,30.11,NNE,22,0.0,0.0,39,0.00,,OVC,0.00,0.00,VWS V14.00,2013-05-30 17:50:00,
2013-05-30 13:55:00,96.9,68.6,30.11,West,270,3.3,3.3,40,0.00,,OVC,0.00,0.00,VWS V14.00,2013-05-30 17:55:00,
2013-05-30 14:00:00,96.8,68.5,30.11,West,270,0.0,0.0,40,0.00,,OVC,0.00,0.00,VWS V14.00,2013-05-30 18:00:00,
2013-05-30 14:05:00,96.6,68.3,30.11,West,270,1.1,1.1,40,0.00,,OVC,0.00,0.00,VWS V14.00,2013-05-30 18:05:00,
2013-05-30 14:10:00,96.0,67.1,30.11,West,270,0.0,0.0,39,0.00,,OVC,0.00,0.00,VWS V14.00,2013-05-30 18:10:00,
2013-05-30 14:15:00,96.0,68.5,30.11,NW,315,7.1,7.1,41,0.00,,OVC,0.00,0.00,VWS V14.00,2013-05-30 18:15:00,
2013-05-30 14:20:00,96.0,68.5,30.11,WSW,248,5.3,5.3,41,0.00,,OVC,0.00,0.00,VWS V14.00,2013-05-30 18:20:00,
2013-05-30 14:25:00,96.0,67.8,30.11,WSW,248,3.3,3.3,40,0.00,,OVC,0.00,0.00,VWS V14.00,2013-05-30 18:25:00,
2013-05-30 14:30:00,95.7,68.2,30.11,WNW,292,0.0,0.0,41,0.00,,OVC,0.00,0.00,VWS V14.00,2013-05-30 18:30:00,
2013-05-30 14:35:00,95.5,67.4,30.11,WSW,248,1.1,1.1,40,0.00,,OVC,0.00,0.00,VWS V14.00,2013-05-30 18:35:00,
2013-05-30 14:40:00,95.3,68.6,30.11,SE,135,4.0,4.0,42,0.00,,OVC,0.00,0.00,VWS V14.00,2013-05-30 18:40:00,
2013-05-30 14:45:00,94.2,68.3,30.11,SW,225,4.6,4.6,43,0.00,,OVC,0.00,0.00,VWS V14.00,2013-05-30 18:45:00,
2013-05-30 14:50:00,94.1,68.9,30.10,SSE,158,0.0,0.0,44,0.00,,OVC,0.00,0.00,VWS V14.00,2013-05-30 18:50:00,
2013-05-30 14:55:00,93.7,69.2,30.10,SW,225,1.5,1.5,45,0.00,,OVC,0.00,0.00,VWS V14.00,2013-05-30 18:55:00,
2013-05-30 15:00:00,94.1,68.2,30.10,SW,225,4.0,4.0,43,0.00,,OVC,0.00,0.00,VWS V14.00,2013-05-30 19:00:00,
2013-05-30 15:05:00,94.1,68.9,30.10,WSW,248,0.0,0.0,44,0.00,,OVC,0.00,0.00,VWS V14.00,2013-05-30 19:05:00,
2013-05-30 15:10:00,93.7,69.8,30.10,South,180,3.8,3.8,46,0.00,,OVC,0.00,0.00,VWS V14.00,2013-05-30 19:10:00,
2013-05-30 15:15:00,92.4,68.6,30.10,West,270,1.7,1.7,46,0.00,,OVC,0.00,0.00,VWS V14.00,2013-05-30 19:15:00,
2013-05-30 15:20:00,91.2,68.8,30.10,North,0,2.2,2.2,48,0.00,,OVC,0.00,0.00,VWS V14.00,2013-05-30 19:20:00,
2013-05-30 15:25:00,91.0,69.2,30.10,WSW,248,3.3,3.3,49,0.00,,OVC,0.00,0.00,VWS V14.00,2013-05-30 19:25:00,
2013-05-30 15:30:00,91.0,69.2,30.09,South,180,1.3,1.3,49,0.00,,OVC,0.00,0.00,VWS V14.00,2013-05-30 19:30:00,
2013-05-30 15:35:00,90.3,68.6,30.09,SW,225,3.3,3.3,49,0.00,,OVC,0.00,0.00,VWS V14.00,2013-05-30 19:35:00,
2013-05-30 15:40:00,89.4,67.7,30.09,South,180,2.9,2.9,49,0.00,,OVC,0.00,0.00,VWS V14.00,2013-05-30 19:40:00,
2013-05-30 15:45:00,88.3,67.3,30.09,SW,225,4.2,4.2,50,0.00,,OVC,0.00,0.00,VWS V14.00,2013-05-30 19:45:00,
2013-05-30 15:50:00,88.3,67.9,30.09,SW,225,0.0,0.0,51,0.00,,OVC,0.00,0.00,VWS V14.00,2013-05-30 19:50:00,
2013-05-30 15:55:00,88.1,67.7,30.09,SSW,202,1.3,1.3,51,0.00,,OVC,0.00,0.00,VWS V14.00,2013-05-30 19:55:00,
2013-05-30 16:00:00,87.8,67.4,30.09,SE,135,0.4,0.4,51,0.00,,OVC,0.00,0.00,VWS V14.00,2013-05-30 20:00:00,
2013-05-30 16:05:00,87.6,67.8,30.08,SSE,158,0.6,0.6,52,0.00,,OVC,0.00,0.00,VWS V14.00,2013-05-30 20:05:00,
2013-05-30 16:10:00,87.6,67.8,30.08,WSW,248,3.1,3.1,52,0.00,,OVC,0.00,0.00,VWS V14.00,2013-05-30 20:10:00,
2013-05-30 16:15:00,87.4,67.6,30.08,SSW,202,0.4,0.4,52,0.00,,OVC,0.00,0.00,VWS V14.00,2013-05-30 20:15:00,
2013-05-30 16:20:00,87.4,67.6,30.08,South,180,3.1,3.1,52,0.00,,OVC,0.00,0.00,VWS V14.00,2013-05-30 20:20:00,
2013-05-30 16:25:00,87.4,67.6,30.08,SSE,158,6.9,6.9,52,0.00,,OVC,0.00,0.00,VWS V14.00,2013-05-30 20:25:00,
2013-05-30 16:30:00,86.9,67.7,30.08,SSW,202,2.2,2.2,53,0.00,,OVC,0.00,0.00,VWS V14.00,2013-05-30 20:30:00,
2013-05-30 16:35:00,86.9,67.7,30.08,SSE,158,0.0,0.0,53,0.00,,OVC,0.00,0.00,VWS V14.00,2013-05-30 20:35:00,
2013-05-30 16:40:00,86.5,67.3,30.08,SE,135,4.0,4.0,53,0.00,,OVC,0.00,0.00,VWS V14.00,2013-05-30 20:40:00,
2013-05-30 16:45:00,86.5,67.9,30.08,SE,135,0.0,0.0,54,0.00,,OVC,0.00,0.00,VWS V14.00,2013-05-30 20:45:00,
2013-05-30 16:50:00,86.5,67.9,30.08,SW,225,0.0,0.0,54,0.00,,OVC,0.00,0.00,VWS V14.00,2013-05-30 20:50:00,
2013-05-30 16:55:00,86.5,67.9,30.08,ESE,112,0.0,0.0,54,0.00,,OVC,0.00,0.00,VWS V14.00,2013-05-30 20:55:00,
2013-05-30 17:00:00,86.1,67.5,30.08,SE,135,0.0,0.0,54,0.00,,OVC,0.00,0.00,VWS V14.00,2013-05-30 21:00:00,
2013-05-30 17:05:00,85.8,67.2,30.08,SSE,158,2.4,2.4,54,0.00,,OVC,0.00,0.00,VWS V14.00,2013-05-30 21:05:00,
2013-05-30 17:10:00,85.6,67.6,30.08,South,180,0.0,0.0,55,0.00,,OVC,0.00,0.00,VWS V14.00,2013-05-30 21:10:00,
2013-05-30 17:15:00,85.1,67.1,30.08,South,180,0.0,0.0,55,0.00,,OVC,0.00,0.00,VWS V14.00,2013-05-30 21:15:00,
2013-05-30 17:20:00,84.7,66.8,30.08,South,180,2.0,2.0,55,0.00,,OVC,0.00,0.00,VWS V14.00,2013-05-30 21:20:00,
2013-05-30 17:25:00,84.7,66.8,30.08,SSW,202,2.9,2.9,55,0.00,,OVC,0.00,0.00,VWS V14.00,2013-05-30 21:25:00,
2013-05-30 17:30:00,84.5,66.6,30.08,SE,135,0.0,0.6,55,0.00,,OVC,0.00,0.00,VWS V14.00,2013-05-30 21:30:00,
2013-05-30 17:35:00,84.2,66.3,30.08,South,180,0.0,1.1,55,0.00,,OVC,0.00,0.00,VWS V14.00,2013-05-30 21:35:00,
2013-05-30 17:40:00,84.0,66.1,30.08,SSW,202,3.1,3.1,55,0.00,,OVC,0.00,0.00,VWS V14.00,2013-05-30 21:40:00,
2013-05-30 17:45:00,83.6,66.3,30.08,SSW,202,0.0,0.0,56,0.00,,OVC,0.00,0.00,VWS V14.00,2013-05-30 21:45:00,
2013-05-30 17:50:00,83.4,66.1,30.07,South,180,0.0,0.0,56,0.00,,OVC,0.00,0.00,VWS V14.00,2013-05-30 21:50:00,
2013-05-30 17:55:00,83.3,66.0,30.07,SSE,158,2.0,2.0,56,0.00,,OVC,0.00,0.00,VWS V14.00,2013-05-30 21:55:00,
2013-05-30 18:00:00,82.9,65.6,30.07,SSE,158,3.1,3.1,56,0.00,,OVC,0.00,0.00,VWS V14.00,2013-05-30 22:00:00,
2013-05-30 18:05:00,82.5,65.8,30.07,South,180,0.0,0.0,57,0.00,,OVC,0.00,0.00,VWS V14.00,2013-05-30 22:05:00,
2013-05-30 18:10:00,82.2,65.5,30.06,SE,135,1.5,1.5,57,0.00,,OVC,0.00,0.00,VWS V14.00,2013-05-30 22:10:00,
2013-05-30 18:15:00,82.0,65.3,30.06,SE,135,0.0,0.0,57,0.00,,OVC,0.00,0.00,VWS V14.00,2013-05-30 22:15:00,
2013-05-30 18:20:00,81.6,64.9,30.07,South,180,2.9,2.9,57,0.00,,OVC,0.00,0.00,VWS V14.00,2013-05-30 22:20:00,
2013-05-30 18:25:00,81.5,65.3,30.07,SE,135,1.1,1.1,58,0.00,,OVC,0.00,0.00,VWS V14.00,2013-05-30 22:25:00,
2013-05-30 18:30:00,81.3,65.1,30.07,SSE,158,0.0,0.0,58,0.00,,OVC,0.00,0.00,VWS V14.00,2013-05-30 22:30:00,
2013-05-30 18:35:00,81.3,65.1,30.07,SSE,158,0.0,0.0,58,0.00,,OVC,0.00,0.00,VWS V14.00,2013-05-30 22:35:00,
2013-05-30 18:40:00,81.3,65.1,30.06,South,180,1.5,1.5,58,0.00,,OVC,0.00,0.00,VWS V14.00,2013-05-30 22:40:00,
2013-05-30 18:45:00,80.9,64.8,30.06,South,180,0.0,0.0,58,0.00,,OVC,0.00,0.00,VWS V14.00,2013-05-30 22:45:00,
2013-05-30 18:50:00,80.9,65.2,30.06,SSW,202,0.0,0.0,59,0.00,,OVC,0.00,0.00,VWS V14.00,2013-05-30 22:50:00,
2013-05-30 18:55:00,80.9,65.2,30.06,SSW,202,0.0,0.0,59,0.00,,OVC,0.00,0.00,VWS V14.00,2013-05-30 22:55:00,
2013-05-30 19:00:00,80.9,65.2,30.07,SSW,202,0.0,0.0,59,0.00,,OVC,0.00,0.00,VWS V14.00,2013-05-30 23:00:00,
2013-05-30 19:05:00,81.1,65.4,30.07,SSW,202,0.0,0.0,59,0.00,,OVC,0.00,0.00,VWS V14.00,2013-05-30 23:05:00,
2013-05-30 19:10:00,81.1,65.9,30.07,SSW,202,0.0,0.0,60,0.00,,OVC,0.00,0.00,VWS V14.00,2013-05-30 23:10:00,
2013-05-30 19:15:00,81.1,65.9,30.07,SSW,202,0.0,0.0,60,0.00,,OVC,0.00,0.00,VWS V14.00,2013-05-30 23:15:00,
2013-05-30 19:20:00,81.1,65.9,30.07,SSW,202,0.0,0.0,60,0.00,,OVC,0.00,0.00,VWS V14.00,2013-05-30 23:20:00,
2013-05-30 19:25:00,80.9,65.7,30.07,SSW,202,0.0,0.0,60,0.00,,OVC,0.00,0.00,VWS V14.00,2013-05-30 23:25:00,
2013-05-30 19:30:00,80.7,65.5,30.07,SSW,202,0.0,0.0,60,0.00,,OVC,0.00,0.00,VWS V14.00,2013-05-30 23:30:00,
2013-05-30 19:35:00,80.7,66.5,30.07,SSW,202,0.0,0.0,62,0.00,,OVC,0.00,0.00,VWS V14.00,2013-05-30 23:35:00,
2013-05-30 19:40:00,80.2,66.5,30.08,SSW,202,0.0,0.0,63,0.00,,OVC,0.00,0.00,VWS V14.00,2013-05-30 23:40:00,
2013-05-30 19:45:00,79.8,66.6,30.07,South,180,0.0,0.0,64,0.00,,OVC,0.00,0.00,VWS V14.00,2013-05-30 23:45:00,
2013-05-30 19:50:00,79.3,66.5,30.07,South,180,0.0,0.0,65,0.00,,OVC,0.00,0.00,VWS V14.00,2013-05-30 23:50:00,
2013-05-30 19:55:00,78.6,66.3,30.08,South,180,0.0,0.0,66,0.00,,OVC,0.00,0.00,VWS V14.00,2013-05-30 23:55:00,
2013-05-30 20:00:00,78.4,66.6,30.08,South,180,0.0,0.0,67,0.00,,OVC,0.00,0.00,VWS V14.00,2013-05-31 00:00:00,
2013-05-30 20:05:00,77.9,66.5,30.08,South,180,0.0,0.0,68,0.00,,OVC,0.00,0.00,VWS V14.00,2013-05-31 00:05:00,
2013-05-30 20:10:00,77.7,66.7,30.08,South,180,0.0,0.0,69,0.00,,OVC,0.00,0.00,VWS V14.00,2013-05-31 00:10:00,
2013-05-30 20:15:00,77.3,66.3,30.08,South,180,0.0,0.0,69,0.00,,OVC,0.00,0.00,VWS V14.00,2013-05-31 00:15:00,
2013-05-30 20:20:00,76.8,66.3,30.08,South,180,0.0,0.0,70,0.00,,OVC,0.00,0.00,VWS V14.00,2013-05-31 00:20:00,
2013-05-30 20:25:00,76.6,66.1,30.08,South,180,0.0,0.0,70,0.00,,OVC,0.00,0.00,VWS V14.00,2013-05-31 00:25:00,
2013-05-30 20:30:00,76.2,66.1,30.08,South,180,0.0,0.0,71,0.00,,OVC,0.00,0.00,VWS V14.00,2013-05-31 00:30:00,
2013-05-30 20:35:00,75.9,65.8,30.08,South,180,0.0,0.0,71,0.00,,OVC,0.00,0.00,VWS V14.00,2013-05-31 00:35:00,
2013-05-30 20:40:00,75.7,66.0,30.08,South,180,0.0,0.0,72,0.00,,OVC,0.00,0.00,VWS V14.00,2013-05-31 00:40:00,
2013-05-30 20:45:00,75.3,65.7,30.08,South,180,0.0,0.0,72,0.00,,OVC,0.00,0.00,VWS V14.00,2013-05-31 00:45:00,
2013-05-30 20:50:00,75.2,65.6,30.08,South,180,0.0,0.0,72,0.00,,OVC,0.00,0.00,VWS V14.00,2013-05-31 00:50:00,
2013-05-30 20:55:00,75.0,65.8,30.08,South,180,0.0,0.0,73,0.00,,OVC,0.00,0.00,VWS V14.00,2013-05-31 00:55:00,
2013-05-30 21:00:00,75.0,65.8,30.08,South,180,0.0,0.0,73,0.00,,OVC,0.00,0.00,VWS V14.00,2013-05-31 01:00:00,
2013-05-30 21:05:00,74.8,65.6,30.08,South,180,0.0,0.0,73,0.00,,OVC,0.00,0.00,VWS V14.00,2013-05-31 01:05:00,
2013-05-30 21:10:00,74.8,65.6,30.08,South,180,0.0,0.0,73,0.00,,OVC,0.00,0.00,VWS V14.00,2013-05-31 01:10:00,
2013-05-30 21:15:00,74.6,65.4,30.09,South,180,0.0,0.0,73,0.00,,OVC,0.00,0.00,VWS V14.00,2013-05-31 01:15:00,
2013-05-30 21:20:00,74.6,65.8,30.09,South,180,0.0,0.0,74,0.00,,OVC,0.00,0.00,VWS V14.00,2013-05-31 01:20:00,
2013-05-30 21:25:00,74.4,65.6,30.09,South,180,0.0,0.0,74,0.00,,OVC,0.00,0.00,VWS V14.00,2013-05-31 01:25:00,
2013-05-30 21:30:00,74.4,65.6,30.09,South,180,0.0,0.0,74,0.00,,OVC,0.00,0.00,VWS V14.00,2013-05-31 01:30:00,
2013-05-30 21:35:00,74.4,65.6,30.09,SW,225,0.0,0.0,74,0.00,,OVC,0.00,0.00,VWS V14.00,2013-05-31 01:35:00,
2013-05-30 21:40:00,74.4,65.6,30.09,SW,225,0.0,0.0,74,0.00,,OVC,0.00,0.00,VWS V14.00,2013-05-31 01:40:00,
2013-05-30 21:45:00,74.4,65.6,30.09,WSW,248,0.0,0.0,74,0.00,,OVC,0.00,0.00,VWS V14.00,2013-05-31 01:45:00,
2013-05-30 21:50:00,74.8,66.0,30.09,WSW,248,0.2,0.2,74,0.00,,OVC,0.00,0.00,VWS V14.00,2013-05-31 01:50:00,
2013-05-30 21:55:00,74.8,65.6,30.09,WSW,248,0.0,0.0,73,0.00,,OVC,0.00,0.00,VWS V14.00,2013-05-31 01:55:00,
2013-05-30 22:00:00,74.8,65.6,30.10,WSW,248,0.0,0.0,73,0.00,,OVC,0.00,0.00,VWS V14.00,2013-05-31 02:00:00,
2013-05-30 22:05:00,75.0,65.8,30.10,WSW,248,0.0,0.0,73,0.00,,OVC,0.00,0.00,VWS V14.00,2013-05-31 02:05:00,
2013-05-30 22:10:00,75.0,65.8,30.10,WSW,248,0.0,0.0,73,0.00,,OVC,0.00,0.00,VWS V14.00,2013-05-31 02:10:00,
2013-05-30 22:15:00,75.0,65.8,30.10,WSW,248,0.0,0.0,73,0.00,,OVC,0.00,0.00,VWS V14.00,2013-05-31 02:15:00,
2013-05-30 22:20:00,75.0,65.4,30.10,WSW,248,0.0,0.0,72,0.00,,OVC,0.00,0.00,VWS V14.00,2013-05-31 02:20:00,
2013-05-30 22:25:00,75.0,65.4,30.10,WSW,248,0.4,0.4,72,0.00,,OVC,0.00,0.00,VWS V14.00,2013-05-31 02:25:00,
2013-05-30 22:30:00,75.3,65.7,30.10,West,270,1.5,1.5,72,0.00,,OVC,0.00,0.00,VWS V14.00,2013-05-31 02:30:00,
2013-05-30 22:35:00,75.3,65.7,30.10,WSW,248,0.0,0.0,72,0.00,,OVC,0.00,0.00,VWS V14.00,2013-05-31 02:35:00,
2013-05-30 22:40:00,75.3,65.7,30.10,WSW,248,2.9,2.9,72,0.00,,OVC,0.00,0.00,VWS V14.00,2013-05-31 02:40:00,
2013-05-30 22:45:00,75.5,65.8,30.10,West,270,0.6,0.6,72,0.00,,OVC,0.00,0.00,VWS V14.00,2013-05-31 02:45:00,
2013-05-30 22:50:00,75.5,65.8,30.10,WSW,248,1.3,1.3,72,0.00,,OVC,0.00,0.00,VWS V14.00,2013-05-31 02:50:00,
2013-05-30 22:54:00,75.7,66.0,30.10,SW,225,3.1,3.1,72,0.00,,OVC,0.00,0.00,VWS V14.00,2013-05-31 02:54:00,
2013-05-30 22:59:00,75.7,66.0,30.10,SW,225,1.1,1.1,72,0.00,,OVC,0.00,0.00,VWS V14.00,2013-05-31 02:59:00,
2013-05-30 23:04:00,75.7,66.0,30.10,WSW,248,0.0,0.0,72,0.00,,OVC,0.00,0.00,VWS V14.00,2013-05-31 03:04:00,
2013-05-30 23:09:00,75.7,66.0,30.10,SW,225,0.8,0.8,72,0.00,,OVC,0.00,0.00,VWS V14.00,2013-05-31 03:09:00,
2013-05-30 23:15:00,75.7,66.0,30.10,WSW,248,3.1,3.1,72,0.00,,OVC,0.00,0.00,VWS V14.00,2013-05-31 03:15:00,
2013-05-30 23:19:00,75.5,66.2,30.10,SW,225,0.0,0.0,73,0.00,,OVC,0.00,0.00,VWS V14.00,2013-05-31 03:19:00,
2013-05-30 23:24:00,75.5,66.2,30.11,West,270,2.2,2.2,73,0.00,,OVC,0.00,0.00,VWS V14.00,2013-05-31 03:24:00,
2013-05-30 23:29:00,75.3,66.1,30.10,SW,225,2.0,2.0,73,0.00,,OVC,0.00,0.00,VWS V14.00,2013-05-31 03:29:00,
2013-05-30 23:34:00,75.3,66.1,30.10,West,270,0.0,0.0,73,0.00,,OVC,0.00,0.00,VWS V14.00,2013-05-31 03:34:00,
2013-05-30 23:39:00,75.3,66.1,30.11,WSW,248,0.0,0.0,73,0.00,,OVC,0.00,0.00,VWS V14.00,2013-05-31 03:39:00,
2013-05-30 23:44:00,75.0,65.8,30.11,SW,225,0.4,0.4,73,0.00,,OVC,0.00,0.00,VWS V14.00,2013-05-31 03:44:00,
2013-05-30 23:49:00,75.0,65.8,30.11,SW,225,0.0,0.0,73,0.00,,OVC,0.00,0.00,VWS V14.00,2013-05-31 03:49:00,
2013-05-30 23:54:00,75.0,65.8,30.11,WSW,248,0.0,0.0,73,0.00,,OVC,0.00,0.00,VWS V14.00,2013-05-31 03:54:00,
2013-05-30 23:59:00,75.0,66.2,30.11,SSW,202,0.0,0.0,74,0.00,,OVC,0.00,0.00,VWS V14.00,2013-05-31 03:59:00,